createdAt,value
2019-05-01T00:00:15.260Z,8.03
2019-05-01T00:10:02.495Z,7.81
2019-05-01T00:20:02.601Z,7.61
2019-05-01T00:30:03.098Z,7.37
2019-05-01T00:40:07.668Z,7.05
2019-05-01T00:50:02.977Z,7.03
2019-05-01T01:00:03.273Z,6.97
2019-05-01T01:10:02.857Z,6.96
2019-05-01T01:20:02.863Z,6.74
2019-05-01T01:30:08.779Z,6.62
2019-05-01T01:40:02.417Z,6.69
2019-05-01T01:50:02.130Z,6.66
2019-05-01T02:00:03.362Z,6.55
2019-05-01T02:10:02.879Z,6.53
2019-05-01T02:20:02.280Z,6.49
2019-05-01T02:30:03.551Z,6.37
2019-05-01T02:40:07.687Z,6.22
2019-05-01T02:50:02.832Z,5.85
2019-05-01T03:00:02.983Z,5.53
2019-05-01T03:10:02.391Z,5.34
2019-05-01T03:20:07.817Z,5.19
2019-05-01T03:30:02.615Z,5.20
2019-05-01T03:40:11.877Z,5.31
2019-05-01T03:50:02.486Z,5.00
2019-05-01T04:00:02.820Z,4.86
2019-05-01T04:10:02.788Z,4.81
2019-05-01T04:20:02.751Z,4.85
2019-05-01T04:30:03.302Z,5.11
2019-05-01T04:40:02.713Z,5.42
2019-05-01T04:50:02.770Z,5.72
2019-05-01T05:00:03.101Z,6.10
2019-05-01T05:10:02.794Z,6.53
2019-05-01T05:20:08.275Z,7.03
2019-05-01T05:30:03.273Z,7.60
2019-05-01T05:40:03.030Z,8.12
2019-05-01T05:50:02.791Z,8.74
2019-05-01T06:00:03.007Z,9.30
2019-05-01T06:10:02.966Z,10.23
2019-05-01T06:20:02.910Z,10.73
2019-05-01T06:30:06.442Z,10.57
2019-05-01T06:40:02.326Z,11.65
2019-05-01T06:50:05.827Z,11.84
2019-05-01T07:00:07.792Z,12.46
2019-05-01T07:10:02.691Z,12.57
2019-05-01T07:20:02.604Z,12.80
2019-05-01T07:30:02.908Z,13.57
2019-05-01T07:40:02.863Z,13.54
2019-05-01T07:50:02.562Z,14.09
2019-05-01T08:00:05.107Z,14.35
2019-05-01T08:10:08.312Z,14.57
2019-05-01T08:20:02.865Z,14.59
2019-05-01T08:30:03.062Z,15.40
2019-05-01T08:40:08.058Z,15.49
2019-05-01T08:50:02.280Z,15.80
2019-05-01T09:00:03.922Z,15.96
2019-05-01T09:10:02.580Z,17.18
2019-05-01T09:20:02.508Z,16.78
2019-05-01T09:30:04.381Z,16.81
2019-05-01T09:40:09.062Z,17.35
2019-05-01T09:50:02.452Z,18.49
2019-05-01T10:00:02.784Z,18.07
2019-05-01T10:10:02.833Z,17.29
2019-05-01T10:20:02.793Z,17.59
2019-05-01T10:30:03.155Z,18.33
2019-05-01T10:40:07.746Z,17.96
2019-05-01T10:50:07.385Z,18.17
2019-05-01T11:00:03.084Z,19.45
2019-05-01T11:10:02.404Z,19.64
2019-05-01T11:20:07.824Z,18.88
2019-05-01T11:30:02.513Z,19.67
2019-05-01T11:40:02.213Z,20.48
2019-05-01T11:50:02.913Z,20.74
2019-05-01T12:00:03.114Z,18.17
2019-05-01T12:10:02.948Z,18.90
2019-05-01T12:20:06.401Z,19.96
2019-05-01T12:30:03.477Z,20.46
2019-05-01T12:40:06.984Z,20.00
2019-05-01T12:50:02.185Z,19.69
2019-05-01T13:00:08.633Z,20.77
2019-05-01T13:10:02.276Z,19.23
2019-05-01T13:20:02.273Z,19.93
2019-05-01T13:30:02.594Z,18.51
2019-05-01T13:40:02.558Z,18.64
2019-05-01T13:50:02.325Z,19.29
2019-05-01T14:00:02.630Z,19.93
2019-05-01T14:10:02.636Z,20.98
2019-05-01T14:20:07.950Z,19.41
2019-05-01T14:30:02.700Z,18.96
2019-05-01T14:40:08.237Z,19.33
2019-05-01T14:50:02.433Z,18.56
2019-05-01T15:00:02.630Z,18.67
2019-05-01T15:10:02.668Z,18.18
2019-05-01T15:20:02.704Z,18.38
2019-05-01T15:30:02.930Z,18.50
2019-05-01T15:40:08.017Z,18.02
2019-05-01T15:50:02.309Z,19.34
2019-05-01T16:00:02.688Z,19.58
2019-05-01T16:10:02.149Z,20.14
2019-05-01T16:20:02.951Z,18.71
2019-05-01T16:30:03.230Z,19.13
2019-05-01T16:40:02.896Z,19.12
2019-05-01T16:50:02.706Z,18.74
2019-05-01T17:00:02.864Z,18.70
2019-05-01T17:10:07.774Z,18.72
2019-05-01T17:20:07.648Z,18.68
2019-05-01T17:30:03.430Z,18.39
2019-05-01T17:40:02.209Z,17.99
2019-05-01T17:50:02.975Z,17.66
2019-05-01T18:00:03.173Z,16.91
2019-05-01T18:10:02.660Z,16.29
2019-05-01T18:20:02.593Z,15.67
2019-05-01T18:30:02.832Z,15.02
2019-05-01T18:40:02.314Z,14.56
2019-05-01T18:50:07.448Z,14.39
2019-05-01T19:00:02.688Z,13.47
2019-05-01T19:10:02.512Z,13.45
2019-05-01T19:20:02.693Z,12.94
2019-05-01T19:30:02.972Z,12.72
2019-05-01T19:40:08.405Z,12.44
2019-05-01T19:50:07.298Z,12.52
2019-05-01T20:00:03.197Z,11.93
2019-05-01T20:10:02.876Z,11.79
2019-05-01T20:20:02.830Z,10.79
2019-05-01T20:30:03.212Z,11.23
2019-05-01T20:40:10.663Z,10.63
2019-05-01T20:50:02.814Z,10.44
2019-05-01T21:00:03.421Z,9.84
2019-05-01T21:10:02.907Z,9.70
2019-05-01T21:20:07.501Z,9.96
2019-05-01T21:30:03.818Z,9.91
2019-05-01T21:40:02.813Z,9.81
2019-05-01T21:50:03.186Z,10.11
2019-05-01T22:00:02.586Z,10.06
2019-05-01T22:10:02.210Z,9.42
2019-05-01T22:20:02.156Z,9.21
2019-05-01T22:30:05.512Z,8.97
2019-05-01T22:40:07.876Z,8.84
2019-05-01T22:50:02.066Z,8.70
2019-05-01T23:00:08.920Z,8.54
2019-05-01T23:10:03.182Z,8.33
2019-05-01T23:20:03.892Z,8.01
2019-05-01T23:30:03.458Z,8.02
2019-05-01T23:40:02.044Z,7.83
2019-05-01T23:50:02.742Z,7.68
